Time;durP1;ratioP1;P1;durP2;ratioP2;P2;SDS_P1;SDS_P2;PMS_P1;PMS_P2;Temp;Humidity;BMP_temperature;BMP_pressure;BME280_temperature;BME280_humidity;BME280_pressure;Samples;Min_cycle;Max_cycle;Signal;HPM_P1;HPM_P2
2023/06/19 00:02:14;;;;;;;5.53;3.83;;;20.60;1.00;;;;;;5093371;28;20043;-66
2023/06/19 00:04:40;;;;;;;4.82;3.20;;;20.50;1.00;;;;;;5093116;28;20040;-66
2023/06/19 00:07:05;;;;;;;3.80;3.25;;;20.50;1.00;;;;;;5093336;28;20040;-66
2023/06/19 00:09:32;;;;;;;4.22;3.45;;;20.50;1.00;;;;;;5093257;28;20043;-66
2023/06/19 00:11:59;;;;;;;9.38;3.20;;;20.50;1.00;;;;;;5091800;28;20044;-66
2023/06/19 00:14:25;;;;;;;6.35;3.78;;;20.50;1.00;;;;;;5091730;28;20047;-67
2023/06/19 00:16:51;;;;;;;5.00;3.33;;;20.50;1.00;;;;;;5092749;28;20127;-65
2023/06/19 00:19:17;;;;;;;5.97;3.42;;;20.50;1.00;;;;;;5091684;28;20412;-65
2023/06/19 00:21:43;;;;;;;5.68;3.20;;;20.40;1.00;;;;;;5093158;28;20479;-65
2023/06/19 00:24:10;;;;;;;5.47;3.20;;;20.40;1.00;;;;;;5093260;28;20486;-66
2023/06/19 00:26:36;;;;;;;6.55;3.50;;;20.40;1.00;;;;;;5093051;28;20036;-66
2023/06/19 00:29:02;;;;;;;6.65;3.50;;;20.40;1.00;;;;;;5093172;28;20062;-65
2023/06/19 00:31:27;;;;;;;6.97;3.63;;;20.40;1.00;;;;;;5093100;28;20086;-66
2023/06/19 00:33:54;;;;;;;4.50;3.10;;;20.40;1.00;;;;;;5093003;28;20044;-66
2023/06/19 00:36:20;;;;;;;4.50;3.45;;;20.50;1.00;;;;;;5092949;28;20047;-66
2023/06/19 00:38:47;;;;;;;4.85;3.10;;;20.40;1.00;;;;;;5091735;28;20047;-66
2023/06/19 00:41:14;;;;;;;4.68;2.95;;;20.30;1.00;;;;;;5092724;28;20122;-65
2023/06/19 00:43:40;;;;;;;4.57;3.78;;;20.40;1.00;;;;;;5091378;28;20145;-66
2023/06/19 00:46:06;;;;;;;5.85;3.78;;;20.50;1.00;;;;;;5092955;28;20036;-66
2023/06/19 00:48:33;;;;;;;5.22;3.17;;;20.50;1.00;;;;;;5092928;28;20036;-66
2023/06/19 00:50:59;;;;;;;9.48;3.65;;;20.50;1.00;;;;;;5092956;28;20419;-66
2023/06/19 00:53:25;;;;;;;6.88;3.58;;;20.50;1.00;;;;;;5092610;28;20476;-65
2023/06/19 00:55:52;;;;;;;5.88;3.80;;;20.50;1.00;;;;;;5092486;28;20036;-66
2023/06/19 00:58:20;;;;;;;4.68;3.15;;;20.50;1.00;;;;;;5092808;28;20040;-66
2023/06/19 01:00:46;;;;;;;6.30;3.90;;;20.50;1.00;;;;;;5092829;28;20478;-66
2023/06/19 01:03:12;;;;;;;4.88;3.15;;;21.20;1.00;;;;;;5092747;28;20086;-66
2023/06/19 01:05:37;;;;;;;4.38;2.97;;;20.50;1.00;;;;;;5092765;28;20430;-65
2023/06/19 01:08:27;;;;;;;3.53;3.10;;;20.50;1.00;;;;;;5091219;28;20450;-66
2023/06/19 01:10:59;;;;;;;6.03;3.63;;;20.50;1.00;;;;;;5092731;28;20051;-66
2023/06/19 01:13:36;;;;;;;4.88;3.20;;;20.60;1.00;;;;;;5092736;28;20040;-65
2023/06/19 01:16:03;;;;;;;6.43;3.92;;;20.50;1.00;;;;;;5094735;28;20071;-65
2023/06/19 01:18:31;;;;;;;12.52;3.65;;;20.60;1.00;;;;;;5096511;28;20044;-66
2023/06/19 01:21:08;;;;;;;4.82;3.35;;;20.90;1.00;;;;;;5096178;28;20036;-66
2023/06/19 01:23:33;;;;;;;5.28;3.40;;;20.70;1.00;;;;;;5095095;28;20086;-66
2023/06/19 01:25:59;;;;;;;4.60;3.47;;;20.60;1.00;;;;;;5096186;28;20044;-66
2023/06/19 01:28:26;;;;;;;5.45;3.10;;;20.70;1.00;;;;;;5094758;28;20048;-66
2023/06/19 01:30:54;;;;;;;4.32;2.95;;;20.70;1.00;;;;;;5094881;28;20127;-65
2023/06/19 01:33:27;;;;;;;4.28;3.03;;;20.90;1.00;;;;;;5096205;28;20131;-65
2023/06/19 01:35:55;;;;;;;4.47;3.15;;;20.80;1.00;;;;;;5096717;28;20514;-66
2023/06/19 01:38:25;;;;;;;5.25;3.33;;;20.70;1.00;;;;;;5094700;28;20040;-66
2023/06/19 01:40:53;;;;;;;6.03;2.83;;;20.90;1.00;;;;;;5095886;28;20079;-65
2023/06/19 01:43:19;;;;;;;5.68;3.78;;;20.80;1.00;;;;;;5096088;28;20032;-66
2023/06/19 01:45:45;;;;;;;4.65;3.42;;;20.60;1.00;;;;;;5095641;28;20036;-66
2023/06/19 01:48:11;;;;;;;5.07;3.35;;;20.80;1.00;;;;;;5095661;28;20097;-65
2023/06/19 01:50:36;;;;;;;5.32;3.00;;;20.90;1.00;;;;;;5095900;28;20071;-65
2023/06/19 01:53:02;;;;;;;4.20;3.10;;;20.80;1.00;;;;;;5095892;28;20044;-65
2023/06/19 01:55:27;;;;;;;4.70;3.40;;;20.70;1.00;;;;;;5095831;28;20044;-66
2023/06/19 01:57:53;;;;;;;5.43;3.33;;;20.80;1.00;;;;;;5094148;28;20510;-66
2023/06/19 02:00:19;;;;;;;3.47;2.70;;;21.20;1.00;;;;;;5095646;28;20479;-66
2023/06/19 02:02:44;;;;;;;5.30;3.70;;;20.80;1.00;;;;;;5095661;28;20028;-65
2023/06/19 02:05:11;;;;;;;4.45;3.60;;;21.00;1.00;;;;;;5095555;28;20043;-65
2023/06/19 02:07:36;;;;;;;5.35;3.40;;;21.30;1.00;;;;;;5095518;28;20039;-66
2023/06/19 02:10:02;;;;;;;4.00;2.97;;;21.00;1.00;;;;;;5095519;28;20040;-65
2023/06/19 02:12:28;;;;;;;3.50;3.03;;;21.00;1.00;;;;;;5095157;28;20399;-65
2023/06/19 02:14:53;;;;;;;6.63;3.20;;;21.00;1.00;;;;;;5095414;28;20079;-66
2023/06/19 02:17:19;;;;;;;5.43;3.30;;;21.30;1.00;;;;;;5094855;28;20052;-65
2023/06/19 02:19:45;;;;;;;4.93;3.40;;;21.20;1.00;;;;;;5095208;28;20377;-66
2023/06/19 02:22:10;;;;;;;7.22;3.65;;;21.00;1.00;;;;;;5095285;28;20036;-66
2023/06/19 02:24:37;;;;;;;5.13;3.53;;;20.90;1.00;;;;;;5095235;28;20078;-66
2023/06/19 02:27:02;;;;;;;3.97;3.13;;;21.00;1.00;;;;;;5093434;28;20076;-66
2023/06/19 02:29:29;;;;;;;7.18;3.25;;;21.00;1.00;;;;;;5095175;28;20075;-66
2023/06/19 02:31:55;;;;;;;4.10;3.13;;;21.20;1.00;;;;;;5095184;28;20455;-66
2023/06/19 02:34:24;;;;;;;6.97;3.85;;;21.00;1.00;;;;;;5095071;28;20080;-65
2023/06/19 02:36:49;;;;;;;4.25;2.63;;;20.80;1.00;;;;;;5094971;28;20415;-65
2023/06/19 02:39:15;;;;;;;4.55;3.35;;;20.90;1.00;;;;;;5094694;28;20093;-66
2023/06/19 02:41:45;;;;;;;4.47;3.28;;;20.90;1.00;;;;;;5094836;28;20040;-66
2023/06/19 02:44:11;;;;;;;5.93;3.35;;;20.80;1.00;;;;;;5094953;28;20063;-66
2023/06/19 02:46:37;;;;;;;4.35;3.15;;;20.90;1.00;;;;;;5094470;28;20040;-65
2023/06/19 02:49:03;;;;;;;4.22;2.97;;;20.80;1.00;;;;;;5094830;28;20028;-66
2023/06/19 02:51:29;;;;;;;4.47;3.50;;;20.80;1.00;;;;;;5094701;28;20049;-65
2023/06/19 02:53:54;;;;;;;5.50;3.22;;;20.80;1.00;;;;;;5094401;28;20044;-65
2023/06/19 02:56:20;;;;;;;4.93;3.13;;;20.80;1.00;;;;;;5094498;28;20032;-66
2023/06/19 02:58:45;;;;;;;4.47;2.97;;;20.90;1.00;;;;;;5094291;28;20071;-65
2023/06/19 03:01:11;;;;;;;4.80;3.30;;;20.80;1.00;;;;;;5094588;28;20043;-65
2023/06/19 03:03:37;;;;;;;3.53;2.85;;;21.60;1.00;;;;;;5094554;28;20395;-65
2023/06/19 03:06:06;;;;;;;5.07;3.03;;;20.90;1.00;;;;;;5093002;28;20040;-65
2023/06/19 03:08:33;;;;;;;4.32;3.15;;;20.40;1.00;;;;;;5094146;28;20530;-65
2023/06/19 03:10:59;;;;;;;6.20;4.13;;;21.10;1.00;;;;;;5094051;28;20047;-66
2023/06/19 03:13:25;;;;;;;7.43;3.75;;;20.90;1.00;;;;;;5094310;28;20376;-65
2023/06/19 03:15:50;;;;;;;4.65;3.55;;;20.80;1.00;;;;;;5109462;28;20067;-65
2023/06/19 03:18:16;;;;;;;3.72;2.78;;;20.90;1.00;;;;;;5094092;28;20047;-66
2023/06/19 03:20:41;;;;;;;5.25;3.17;;;20.90;1.00;;;;;;5093815;28;20123;-65
2023/06/19 03:23:07;;;;;;;4.20;2.65;;;20.90;1.00;;;;;;5094091;28;20051;-66
2023/06/19 03:25:34;;;;;;;4.97;3.22;;;20.90;1.00;;;;;;5094037;28;20040;-66
2023/06/19 03:28:02;;;;;;;7.05;3.72;;;21.00;1.00;;;;;;5092768;28;20092;-66
2023/06/19 03:30:28;;;;;;;5.25;3.17;;;20.90;1.00;;;;;;5092768;28;20059;-66
2023/06/19 03:32:53;;;;;;;4.72;2.67;;;21.00;1.00;;;;;;5093891;28;20032;-66
2023/06/19 03:35:19;;;;;;;5.07;3.38;;;20.80;1.00;;;;;;5093934;28;20047;-65
2023/06/19 03:37:44;;;;;;;5.18;3.13;;;20.90;1.00;;;;;;5092811;28;20577;-65
2023/06/19 03:40:13;;;;;;;4.63;3.25;;;20.70;1.00;;;;;;5093470;28;20055;-66
2023/06/19 03:42:39;;;;;;;5.68;3.17;;;20.90;1.00;;;;;;5093766;28;20107;-65
2023/06/19 03:45:06;;;;;;;5.90;3.47;;;21.00;1.00;;;;;;5093727;28;20120;-65
2023/06/19 03:47:31;;;;;;;5.05;2.85;;;20.90;1.00;;;;;;5093711;28;20470;-65
2023/06/19 03:49:57;;;;;;;5.22;3.17;;;20.80;1.00;;;;;;5092072;28;20084;-66
2023/06/19 03:52:23;;;;;;;5.35;3.17;;;20.90;1.00;;;;;;5109010;28;20044;-66
2023/06/19 03:54:49;;;;;;;5.00;3.38;;;20.90;1.00;;;;;;5093553;28;20051;-65
2023/06/19 03:57:15;;;;;;;6.15;2.83;;;20.80;1.00;;;;;;5091962;28;20458;-66
2023/06/19 03:59:40;;;;;;;4.50;2.53;;;20.80;1.00;;;;;;5108908;28;20032;-65
2023/06/19 04:02:06;;;;;;;5.43;3.30;;;20.80;1.00;;;;;;5093456;28;20036;-66
2023/06/19 04:04:31;;;;;;;5.50;3.03;;;20.80;1.00;;;;;;5093306;28;20119;-65
2023/06/19 04:06:59;;;;;;;3.83;2.63;;;21.00;1.00;;;;;;5108775;28;20491;-66
2023/06/19 04:09:24;;;;;;;3.83;2.88;;;20.80;1.00;;;;;;5093071;28;20048;-66
2023/06/19 04:11:50;;;;;;;5.20;2.97;;;20.80;1.00;;;;;;5093294;28;20055;-66
2023/06/19 04:14:16;;;;;;;6.60;2.80;;;20.70;1.00;;;;;;5093220;28;20075;-68
2023/06/19 04:16:41;;;;;;;5.15;2.78;;;20.90;1.00;;;;;;5092821;28;20055;-68
2023/06/19 04:19:07;;;;;;;3.00;2.10;;;20.80;1.00;;;;;;5093243;28;20078;-66
2023/06/19 04:21:32;;;;;;;4.72;2.17;;;21.10;1.00;;;;;;5093125;28;20456;-66
2023/06/19 04:23:58;;;;;;;4.13;2.00;;;21.00;1.00;;;;;;5093210;28;20475;-66
2023/06/19 04:26:24;;;;;;;3.03;2.30;;;20.60;1.00;;;;;;5093109;28;20059;-65
2023/06/19 04:28:50;;;;;;;2.80;2.10;;;21.10;1.00;;;;;;5093137;28;20040;-65
2023/06/19 04:31:17;;;;;;;2.42;1.50;;;20.80;1.00;;;;;;5093134;28;20517;-66
2023/06/19 04:33:46;;;;;;;2.92;1.70;;;21.20;1.00;;;;;;5093066;28;20115;-65
2023/06/19 04:36:12;;;;;;;2.38;1.60;;;20.60;1.00;;;;;;5092919;28;20032;-65
2023/06/19 04:38:37;;;;;;;5.70;1.85;;;20.80;1.00;;;;;;5093030;28;20468;-65
2023/06/19 04:41:03;;;;;;;5.07;1.80;;;20.80;1.00;;;;;;5092722;28;20044;-65
2023/06/19 04:43:29;;;;;;;3.00;2.05;;;20.80;1.00;;;;;;5092975;28;20089;-65
2023/06/19 04:45:54;;;;;;;2.97;1.90;;;20.80;1.00;;;;;;5091779;28;20460;-65
2023/06/19 04:48:24;;;;;;;4.65;1.98;;;20.80;1.00;;;;;;5091748;28;20067;-65
2023/06/19 04:50:51;;;;;;;3.57;2.13;;;20.80;1.00;;;;;;5096900;28;20517;-65
2023/06/19 04:53:16;;;;;;;2.38;1.75;;;20.80;1.00;;;;;;5096775;28;20032;-65
2023/06/19 04:55:43;;;;;;;3.50;2.00;;;20.80;1.00;;;;;;5096931;28;20399;-65
2023/06/19 04:58:09;;;;;;;9.02;1.90;;;20.80;1.00;;;;;;5096903;28;20039;-65
2023/06/19 05:00:35;;;;;;;3.17;1.85;;;20.80;1.00;;;;;;5096806;28;20032;-68
2023/06/19 05:03:00;;;;;;;2.08;1.52;;;20.90;1.00;;;;;;5096588;28;20040;-66
2023/06/19 05:05:28;;;;;;;2.90;1.75;;;21.00;1.00;;;;;;5096805;28;20423;-65
2023/06/19 05:07:53;;;;;;;2.53;1.67;;;20.90;1.00;;;;;;5096728;28;20491;-65
2023/06/19 05:10:19;;;;;;;2.75;1.67;;;20.90;1.00;;;;;;5096672;28;20097;-65
2023/06/19 05:12:44;;;;;;;2.35;1.60;;;21.00;1.00;;;;;;5096671;28;20043;-65
2023/06/19 05:15:10;;;;;;;3.38;1.73;;;20.90;1.00;;;;;;5096452;28;20526;-65
2023/06/19 05:17:38;;;;;;;5.50;2.00;;;20.90;1.00;;;;;;5096214;28;20036;-65
2023/06/19 05:20:06;;;;;;;2.83;1.63;;;21.00;1.00;;;;;;5096558;28;20044;-65
2023/06/19 05:22:33;;;;;;;3.30;1.63;;;20.90;1.00;;;;;;5094934;28;20412;-65
2023/06/19 05:25:00;;;;;;;3.08;1.73;;;20.90;1.00;;;;;;5095672;28;20519;-63
2023/06/19 05:27:25;;;;;;;2.70;1.75;;;21.50;1.00;;;;;;5096357;28;20141;-63
2023/06/19 05:29:51;;;;;;;4.10;1.58;;;21.40;1.00;;;;;;5095956;28;20048;-63
2023/06/19 05:32:16;;;;;;;2.38;1.35;;;21.00;1.00;;;;;;5095981;28;20036;-63
2023/06/19 05:34:42;;;;;;;1.60;1.42;;;21.10;1.00;;;;;;5096199;28;20040;-63
2023/06/19 05:37:07;;;;;;;2.40;1.20;;;21.30;1.00;;;;;;5094918;28;20464;-63
2023/06/19 05:39:33;;;;;;;2.47;1.40;;;21.10;1.00;;;;;;5096118;28;20136;-64
2023/06/19 05:41:59;;;;;;;2.47;1.73;;;21.00;1.00;;;;;;5096069;28;20198;-65
2023/06/19 05:44:24;;;;;;;2.58;1.52;;;21.00;1.00;;;;;;5096065;28;20042;-69
2023/06/19 05:46:50;;;;;;;2.50;1.50;;;20.90;1.00;;;;;;5095606;28;20040;-65
2023/06/19 05:49:15;;;;;;;2.10;1.50;;;20.90;1.00;;;;;;5095925;28;20081;-69
2023/06/19 05:51:41;;;;;;;2.88;1.50;;;21.00;1.00;;;;;;5095858;28;20046;-64
2023/06/19 05:54:07;;;;;;;2.45;1.55;;;21.10;1.00;;;;;;5095860;28;20046;-64
2023/06/19 05:56:33;;;;;;;3.95;1.77;;;21.10;1.00;;;;;;5095422;28;20611;-64
2023/06/19 05:59:02;;;;;;;2.47;1.50;;;21.40;1.00;;;;;;5095779;28;20040;-65
2023/06/19 06:01:29;;;;;;;2.22;1.45;;;21.40;1.00;;;;;;5094839;28;20032;-67
2023/06/19 06:03:55;;;;;;;5.60;1.48;;;21.20;1.00;;;;;;5094078;28;20119;-66
2023/06/19 06:06:22;;;;;;;2.55;1.75;;;21.40;1.00;;;;;;5094082;28;20036;-67
2023/06/19 06:08:47;;;;;;;2.63;1.63;;;21.20;1.00;;;;;;5094160;28;20039;-63
2023/06/19 06:11:13;;;;;;;2.22;1.58;;;21.20;1.00;;;;;;5095433;28;20039;-63
2023/06/19 06:13:38;;;;;;;2.45;1.55;;;21.30;1.00;;;;;;5095455;28;20232;-63
2023/06/19 06:16:04;;;;;;;3.65;1.85;;;21.60;2.60;;;;;;5095228;28;20044;-63
2023/06/19 06:18:30;;;;;;;4.47;1.75;;;21.50;18.00;;;;;;5094091;28;20036;-66
2023/06/19 06:20:55;;;;;;;5.10;1.73;;;21.40;22.50;;;;;;5095347;28;20520;-64
2023/06/19 06:23:21;;;;;;;4.68;2.05;;;21.70;72.00;;;;;;5095062;28;20070;-64
2023/06/19 06:25:46;;;;;;;3.13;1.55;;;21.50;99.90;;;;;;5095205;28;20387;-64
2023/06/19 06:28:12;;;;;;;2.30;1.52;;;;;;;;;;5095179;28;20086;-65
2023/06/19 06:30:38;;;;;;;3.08;1.67;;;;;;;;;;5094962;28;20039;-66
2023/06/19 06:33:04;;;;;;;1.58;1.23;;;22.10;1.00;;;;;;5095041;28;20497;-64
2023/06/19 06:35:30;;;;;;;2.90;1.65;;;22.20;7.10;;;;;;5095047;28;20040;-67
2023/06/19 06:37:56;;;;;;;2.40;1.35;;;22.20;1.00;;;;;;5094622;28;20438;-67
2023/06/19 06:40:21;;;;;;;2.67;1.52;;;23.10;1.00;;;;;;5094907;28;20032;-67
2023/06/19 06:42:47;;;;;;;1.95;1.42;;;22.20;1.00;;;;;;5094849;28;20119;-67
2023/06/19 06:45:13;;;;;;;2.25;1.52;;;22.30;1.00;;;;;;5094791;28;20043;-67
2023/06/19 06:47:39;;;;;;;2.03;1.35;;;22.30;1.00;;;;;;5094484;28;20047;-67
2023/06/19 06:50:06;;;;;;;3.58;1.63;;;22.00;1.00;;;;;;5094557;28;20377;-67
2023/06/19 06:52:32;;;;;;;2.30;1.60;;;22.10;1.00;;;;;;5094654;28;20059;-64
2023/06/19 06:54:58;;;;;;;2.95;1.48;;;21.90;1.00;;;;;;5094440;28;20032;-64
2023/06/19 06:57:24;;;;;;;3.75;1.70;;;21.70;2.60;;;;;;5094624;28;20048;-64
2023/06/19 06:59:50;;;;;;;3.13;1.90;;;21.60;5.30;;;;;;5094208;28;20040;-64
2023/06/19 07:02:16;;;;;;;4.13;2.08;;;21.50;5.70;;;;;;5093401;28;20040;-64
2023/06/19 07:04:41;;;;;;;3.25;1.83;;;21.50;10.90;;;;;;5094078;28;20118;-64
2023/06/19 07:07:08;;;;;;;2.70;1.90;;;21.40;22.40;;;;;;5109828;28;20105;-64
2023/06/19 07:09:34;;;;;;;3.40;2.10;;;21.30;30.50;;;;;;5093990;28;20044;-64
2023/06/19 07:12:01;;;;;;;3.55;2.55;;;21.50;31.90;;;;;;5094324;28;20093;-64
2023/06/19 07:14:27;;;;;;;4.85;2.72;;;21.30;34.90;;;;;;5094262;28;20384;-64
2023/06/19 07:16:53;;;;;;;7.20;3.42;;;21.30;41.60;;;;;;5093828;28;20098;-64
2023/06/19 07:19:18;;;;;;;4.72;2.88;;;21.30;70.50;;;;;;5094129;28;20036;-64
2023/06/19 07:21:44;;;;;;;6.80;3.72;;;21.30;61.00;;;;;;5094020;28;20036;-64
2023/06/19 07:24:10;;;;;;;7.38;3.38;;;21.20;63.70;;;;;;5094064;28;20533;-64
2023/06/19 07:26:35;;;;;;;6.47;3.70;;;21.20;60.30;;;;;;5093986;28;20040;-64
2023/06/19 07:29:01;;;;;;;5.20;3.95;;;21.30;75.60;;;;;;5094001;28;20043;-64
2023/06/19 07:31:27;;;;;;;4.63;3.67;;;21.10;92.80;;;;;;5094063;28;20506;-64
2023/06/19 07:33:52;;;;;;;6.43;4.03;;;21.60;99.90;;;;;;5093943;28;20040;-64
2023/06/19 07:36:18;;;;;;;8.18;4.00;;;21.20;99.90;;;;;;5109300;28;20105;-64
2023/06/19 07:38:43;;;;;;;5.43;3.55;;;21.20;94.60;;;;;;5093929;28;20389;-64
2023/06/19 07:41:10;;;;;;;5.35;3.85;;;22.10;87.60;;;;;;5093860;28;20036;-64
2023/06/19 07:43:37;;;;;;;4.47;3.45;;;21.20;99.90;;;;;;5093789;28;20403;-64
2023/06/19 07:46:03;;;;;;;3.70;2.60;;;21.20;99.90;;;;;;5093728;28;20418;-64
2023/06/19 07:48:29;;;;;;;5.30;3.30;;;21.30;99.30;;;;;;5093695;28;20111;-64
2023/06/19 07:50:54;;;;;;;5.13;2.92;;;21.10;99.90;;;;;;5093344;28;20036;-64
2023/06/19 07:53:20;;;;;;;4.45;2.67;;;21.10;84.60;;;;;;5091963;28;20487;-64
2023/06/19 07:55:46;;;;;;;6.85;2.95;;;21.70;99.90;;;;;;5093202;28;20085;-64
2023/06/19 07:58:12;;;;;;;4.15;2.55;;;21.00;89.10;;;;;;5093352;28;20036;-66
2023/06/19 08:00:37;;;;;;;2.97;2.22;;;21.00;91.10;;;;;;5093379;28;20090;-64
2023/06/19 08:03:04;;;;;;;4.68;2.42;;;20.90;90.50;;;;;;5093395;28;20042;-64
2023/06/19 08:05:30;;;;;;;3.63;2.40;;;21.00;91.70;;;;;;5091820;28;20036;-64
2023/06/19 08:07:58;;;;;;;3.83;2.30;;;21.00;94.20;;;;;;5092034;28;20104;-64
2023/06/19 08:10:23;;;;;;;2.50;1.85;;;21.00;90.30;;;;;;5093356;28;20039;-64
2023/06/19 08:12:49;;;;;;;3.03;1.80;;;21.00;98.30;;;;;;5093194;28;20507;-63
2023/06/19 08:15:14;;;;;;;2.65;1.95;;;21.00;93.00;;;;;;5092981;28;20100;-64
2023/06/19 08:17:40;;;;;;;3.97;1.95;;;21.00;97.60;;;;;;5092724;28;20081;-64
2023/06/19 08:20:07;;;;;;;2.63;1.88;;;21.00;95.20;;;;;;5092936;28;20076;-64
2023/06/19 08:22:33;;;;;;;2.70;1.75;;;21.10;94.80;;;;;;5091906;28;20032;-64
2023/06/19 08:24:58;;;;;;;2.22;1.60;;;21.00;99.90;;;;;;5092696;28;20361;-64
2023/06/19 08:27:24;;;;;;;4.30;1.98;;;21.10;99.90;;;;;;5092971;28;20039;-64
2023/06/19 08:29:49;;;;;;;3.85;2.15;;;21.10;99.20;;;;;;5093032;28;20062;-64
2023/06/19 08:32:15;;;;;;;3.40;2.00;;;21.10;97.30;;;;;;5093053;28;20184;-64
2023/06/19 08:34:41;;;;;;;4.00;1.95;;;21.20;94.30;;;;;;5092964;28;20044;-64
2023/06/19 08:37:08;;;;;;;3.88;1.60;;;21.10;95.10;;;;;;5092894;28;20480;-64
2023/06/19 08:39:38;;;;;;;2.58;1.60;;;21.10;94.10;;;;;;5091433;28;20040;-64
2023/06/19 08:42:06;;;;;;;2.60;1.80;;;21.10;85.20;;;;;;5091277;28;20044;-64
2023/06/19 08:44:34;;;;;;;2.05;1.33;;;21.00;84.50;;;;;;5092689;28;20036;-64
2023/06/19 08:46:59;;;;;;;3.50;2.10;;;20.90;87.00;;;;;;5091456;28;20075;-64
2023/06/19 08:49:25;;;;;;;2.22;1.80;;;21.00;86.70;;;;;;5092668;28;20102;-64
2023/06/19 08:51:51;;;;;;;2.72;1.70;;;21.00;63.00;;;;;;5092979;28;20048;-64
2023/06/19 08:54:17;;;;;;;2.90;1.90;;;20.90;53.60;;;;;;5092817;28;20483;-64
2023/06/19 08:56:43;;;;;;;3.20;1.75;;;20.90;47.10;;;;;;5092715;28;20032;-64
2023/06/19 08:59:17;;;;;;;2.85;1.95;;;20.80;43.70;;;;;;5092508;28;20177;-64
2023/06/19 09:01:54;;;;;;;4.40;2.22;;;20.70;44.50;;;;;;5092774;28;20381;-64
2023/06/19 09:04:22;;;;;;;3.67;1.90;;;20.80;42.50;;;;;;5092755;28;20118;-64
2023/06/19 09:06:53;;;;;;;3.35;1.92;;;20.80;39.20;;;;;;5092702;28;20044;-64
2023/06/19 09:09:20;;;;;;;4.18;2.10;;;20.70;40.50;;;;;;5092728;28;20044;-64
2023/06/19 09:12:04;;;;;;;2.00;1.58;;;20.70;49.90;;;;;;5092655;28;20044;-64
2023/06/19 09:14:41;;;;;;;2.40;1.90;;;20.70;43.50;;;;;;5092339;28;20039;-64
2023/06/19 09:17:11;;;;;;;5.82;2.25;;;20.60;38.60;;;;;;5092148;28;20083;-64
2023/06/19 09:19:37;;;;;;;3.42;1.92;;;20.60;50.00;;;;;;5092624;28;20055;-64
2023/06/19 09:22:07;;;;;;;2.17;1.67;;;20.60;42.00;;;;;;5092588;28;20032;-64
2023/06/19 09:24:40;;;;;;;2.67;1.93;;;20.60;48.60;;;;;;5092531;28;20028;-63
2023/06/19 09:27:14;;;;;;;2.75;1.85;;;20.60;40.30;;;;;;5090837;28;20290;-63
2023/06/19 09:29:45;;;;;;;3.72;2.25;;;20.60;38.60;;;;;;5090917;28;20105;-63
2023/06/19 09:32:21;;;;;;;3.28;2.05;;;20.70;37.30;;;;;;5092428;28;20387;-64
2023/06/19 09:34:49;;;;;;;4.55;1.92;;;20.90;40.10;;;;;;5092408;28;20483;-64
2023/06/19 09:37:16;;;;;;;2.88;1.90;;;21.00;26.60;;;;;;5076784;28;20068;-63
2023/06/19 09:39:42;;;;;;;2.83;2.10;;;21.20;26.80;;;;;;5096103;28;20024;-64
2023/06/19 09:42:09;;;;;;;2.45;1.83;;;21.30;24.20;;;;;;5095864;28;20040;-64
2023/06/19 09:44:42;;;;;;;3.15;2.40;;;21.40;24.70;;;;;;5095775;28;20032;-64
2023/06/19 09:47:18;;;;;;;3.53;2.60;;;21.50;21.50;;;;;;5096016;28;20089;-63
2023/06/19 09:49:49;;;;;;;3.70;2.20;;;21.60;15.20;;;;;;5095903;28;20040;-63
2023/06/19 09:52:15;;;;;;;3.75;2.22;;;21.50;13.60;;;;;;5095936;28;20051;-64
2023/06/19 09:54:43;;;;;;;6.20;2.70;;;21.50;13.40;;;;;;5095788;28;20476;-65
2023/06/19 09:57:10;;;;;;;5.97;2.50;;;21.40;11.70;;;;;;5095513;28;20044;-65
2023/06/19 09:59:38;;;;;;;4.10;2.70;;;21.50;14.10;;;;;;5094346;28;20549;-65
2023/06/19 10:02:06;;;;;;;4.18;2.53;;;21.60;13.80;;;;;;5095756;28;20075;-65
2023/06/19 10:04:45;;;;;;;5.13;2.85;;;21.70;13.40;;;;;;5095605;28;20040;-65
2023/06/19 10:07:32;;;;;;;5.68;2.97;;;21.70;8.30;;;;;;5095497;28;20036;-68
2023/06/19 10:10:06;;;;;;;5.60;3.35;;;21.80;9.80;;;;;;5095523;28;20146;-63
2023/06/19 10:12:45;;;;;;;5.05;3.15;;;21.80;6.10;;;;;;5095217;28;20390;-64
2023/06/19 10:15:23;;;;;;;5.40;3.33;;;21.80;4.90;;;;;;5094050;28;20040;-63
2023/06/19 10:17:58;;;;;;;5.50;3.22;;;22.20;6.50;;;;;;5095355;28;20052;-65
2023/06/19 10:20:31;;;;;;;4.80;3.25;;;22.20;6.50;;;;;;5093823;28;20442;-65
2023/06/19 10:23:06;;;;;;;4.78;2.60;;;22.30;2.30;;;;;;5095386;28;20090;-64
2023/06/19 10:25:37;;;;;;;4.63;2.80;;;22.40;1.00;;;;;;5094981;28;20039;-64
2023/06/19 10:28:07;;;;;;;4.90;2.72;;;22.50;1.00;;;;;;5095007;28;20044;-64
2023/06/19 10:30:36;;;;;;;5.13;2.90;;;22.50;1.00;;;;;;5095129;28;20356;-64
2023/06/19 10:33:05;;;;;;;3.80;2.72;;;22.50;1.00;;;;;;5095209;28;20364;-64
2023/06/19 10:35:41;;;;;;;4.20;2.63;;;22.60;1.00;;;;;;5094991;28;20040;-65
2023/06/19 10:38:08;;;;;;;5.07;3.17;;;22.80;1.00;;;;;;5093783;28;20123;-68
2023/06/19 10:40:36;;;;;;;5.07;3.08;;;22.80;1.00;;;;;;5094964;28;20360;-65
2023/06/19 10:43:03;;;;;;;4.57;2.92;;;22.80;1.00;;;;;;5094967;28;20040;-64
2023/06/19 10:45:29;;;;;;;4.95;2.33;;;22.90;1.00;;;;;;5094885;28;20047;-64
2023/06/19 10:47:55;;;;;;;5.15;3.15;;;22.90;1.00;;;;;;5092922;28;20396;-65
2023/06/19 10:50:22;;;;;;;6.40;3.30;;;22.80;1.00;;;;;;5093142;28;20044;-68
2023/06/19 10:52:52;;;;;;;5.63;2.97;;;22.90;1.00;;;;;;5093077;28;20044;-67
2023/06/19 10:55:18;;;;;;;4.30;3.05;;;23.50;1.00;;;;;;5094628;28;20513;-67
2023/06/19 10:57:47;;;;;;;3.83;3.00;;;22.80;1.00;;;;;;5094507;28;20153;-64
2023/06/19 11:00:30;;;;;;;4.60;3.03;;;22.80;1.00;;;;;;5094628;28;20062;-66
2023/06/19 11:02:56;;;;;;;5.68;3.08;;;22.90;1.00;;;;;;5094473;28;20036;-64
2023/06/19 11:05:27;;;;;;;3.70;2.70;;;23.00;1.00;;;;;;5094497;28;20067;-63
2023/06/19 11:07:57;;;;;;;5.07;3.03;;;23.10;1.00;;;;;;5094024;28;20044;-63
2023/06/19 11:10:26;;;;;;;4.07;2.97;;;22.90;1.00;;;;;;5093218;28;20044;-64
2023/06/19 11:12:56;;;;;;;7.07;2.95;;;23.00;1.00;;;;;;5094083;28;20490;-63
2023/06/19 11:15:28;;;;;;;;;;;22.90;1.00;;;;;;5094539;28;20044;-64
2023/06/19 11:17:54;;;;;;;3.30;2.40;;;23.00;1.00;;;;;;5092824;28;19931;-64
2023/06/19 11:20:19;;;;;;;5.57;2.53;;;23.00;1.00;;;;;;5094087;28;20458;-63
2023/06/19 11:22:46;;;;;;;2.95;2.05;;;23.00;1.00;;;;;;5092777;28;20028;-63
2023/06/19 11:25:11;;;;;;;3.83;2.38;;;23.00;1.00;;;;;;5094112;28;20032;-63
2023/06/19 11:27:39;;;;;;;6.07;3.03;;;23.10;1.00;;;;;;5075665;28;20153;-63
2023/06/19 11:30:07;;;;;;;3.28;2.33;;;23.20;1.00;;;;;;5092822;28;20044;-63
2023/06/19 11:32:40;;;;;;;4.90;2.78;;;23.30;1.00;;;;;;5093998;28;20408;-63
2023/06/19 11:35:09;;;;;;;4.43;2.90;;;23.40;1.00;;;;;;5093926;28;20119;-64
2023/06/19 11:37:35;;;;;;;4.95;2.85;;;23.50;1.00;;;;;;5093545;28;20412;-63
2023/06/19 11:40:06;;;;;;;5.10;2.47;;;23.70;1.00;;;;;;5093813;28;20040;-63
2023/06/19 11:42:32;;;;;;;4.90;2.70;;;23.70;1.00;;;;;;5093720;28;20077;-64
2023/06/19 11:45:06;;;;;;;5.13;3.17;;;23.40;1.00;;;;;;5093376;28;20032;-64
2023/06/19 11:47:32;;;;;;;4.43;2.83;;;23.70;1.00;;;;;;5093828;28;20048;-64
2023/06/19 11:49:59;;;;;;;3.78;2.53;;;23.50;1.00;;;;;;5093714;28;20080;-65
2023/06/19 11:52:24;;;;;;;8.43;2.95;;;23.40;1.00;;;;;;5093728;28;20036;-63
2023/06/19 11:54:50;;;;;;;5.75;3.45;;;23.50;1.00;;;;;;5093286;28;20054;-64
2023/06/19 11:57:16;;;;;;;5.55;3.50;;;23.30;1.00;;;;;;5093546;28;20050;-63
2023/06/19 11:59:42;;;;;;;4.10;2.85;;;23.30;1.00;;;;;;5092851;28;20071;-64
2023/06/19 12:02:08;;;;;;;4.60;2.70;;;23.30;1.00;;;;;;5093203;28;20101;-63
2023/06/19 12:04:34;;;;;;;4.78;3.00;;;23.30;1.00;;;;;;5093514;28;20036;-63
2023/06/19 12:07:01;;;;;;;5.53;2.80;;;23.50;1.00;;;;;;5091900;28;20086;-64
2023/06/19 12:09:27;;;;;;;4.68;3.10;;;23.70;1.00;;;;;;5093399;28;20036;-64
2023/06/19 12:11:53;;;;;;;5.20;3.13;;;23.90;1.00;;;;;;5093345;28;20044;-64
2023/06/19 12:14:20;;;;;;;4.55;2.40;;;23.60;1.00;;;;;;5093315;28;20090;-65
2023/06/19 12:16:46;;;;;;;4.18;2.55;;;23.60;1.00;;;;;;5092723;28;20056;-64
2023/06/19 12:19:13;;;;;;;4.10;3.13;;;23.60;1.00;;;;;;5093237;28;20047;-65
2023/06/19 12:21:38;;;;;;;3.55;2.47;;;23.30;1.00;;;;;;5093161;28;20743;-65
2023/06/19 12:24:05;;;;;;;4.90;2.75;;;23.60;1.00;;;;;;5093187;28;20484;-65
2023/06/19 12:26:36;;;;;;;4.65;2.80;;;24.00;1.00;;;;;;5091601;28;20044;-65
2023/06/19 12:29:03;;;;;;;5.00;2.80;;;24.00;1.00;;;;;;5093090;28;20040;-65
2023/06/19 12:31:29;;;;;;;5.90;3.28;;;24.00;1.00;;;;;;5091860;28;20083;-65
2023/06/19 12:33:55;;;;;;;4.53;2.88;;;24.00;1.00;;;;;;5092987;28;20074;-65
2023/06/19 12:36:20;;;;;;;5.63;2.97;;;24.00;1.00;;;;;;5093018;28;20434;-65
2023/06/19 12:38:47;;;;;;;5.47;2.95;;;23.90;1.00;;;;;;5091695;28;20043;-66
2023/06/19 12:41:13;;;;;;;5.88;2.70;;;23.90;1.00;;;;;;5092911;28;20398;-66
2023/06/19 12:43:39;;;;;;;5.68;3.17;;;23.90;1.00;;;;;;5091693;28;20036;-65
2023/06/19 12:46:04;;;;;;;7.55;3.20;;;23.80;1.00;;;;;;5092964;28;20036;-66
2023/06/19 12:48:30;;;;;;;5.05;3.00;;;23.70;1.00;;;;;;5091652;28;20375;-66
2023/06/19 12:50:55;;;;;;;5.10;2.80;;;23.80;1.00;;;;;;5091764;28;20119;-67
2023/06/19 12:53:26;;;;;;;4.70;3.08;;;23.80;1.00;;;;;;5092846;28;20036;-67
2023/06/19 12:55:55;;;;;;;;;;;24.00;1.00;;;;;;5093215;28;20142;-66